Toamasina, Toamasina Airport (FMMT)

NameToamasina Airport
CityToamasina
CountryMadagascar
ICAOFMMT
IATATMM
Altitude7 m
CoordinatesGoogle Map
Live Air TrafficLiveATC.net
METARFMMT 180100Z 00000KT 9999 FEW017 24/23 Q1011
2019-01-18 01:00:00 Wind: North (0°) 0 m/s - Visibility: > 10000 m - Temperature: 24 °C - Dew point: 23 °C - Humidity: 94.2% - Pressure: 1011 hPa
Statistics

The table below shows the detailed information of all flights to/from Toamasina, Toamasina Airport (FMMT).